sensor_id;sensor_type;location;lat;lon;timestamp;P1;durP1;ratioP1;P2;durP2;ratioP2
15096;SDS011;7649;52.084;7.478;2024-02-21T00:00:35;20.47;;;12.17;;
15096;SDS011;7649;52.084;7.478;2024-02-21T00:03:04;22.40;;;12.30;;
15096;SDS011;7649;52.084;7.478;2024-02-21T00:05:33;18.07;;;11.80;;
15096;SDS011;7649;52.084;7.478;2024-02-21T00:08:01;18.60;;;11.27;;
15096;SDS011;7649;52.084;7.478;2024-02-21T00:10:30;15.87;;;10.83;;
15096;SDS011;7649;52.084;7.478;2024-02-21T00:12:59;21.30;;;12.17;;
15096;SDS011;7649;52.084;7.478;2024-02-21T00:15:28;25.90;;;11.77;;
15096;SDS011;7649;52.084;7.478;2024-02-21T00:17:57;22.10;;;12.20;;
15096;SDS011;7649;52.084;7.478;2024-02-21T00:20:25;23.17;;;13.00;;
15096;SDS011;7649;52.084;7.478;2024-02-21T00:22:54;25.20;;;11.77;;
15096;SDS011;7649;52.084;7.478;2024-02-21T00:25:22;20.80;;;12.43;;
15096;SDS011;7649;52.084;7.478;2024-02-21T00:27:50;22.33;;;11.83;;
15096;SDS011;7649;52.084;7.478;2024-02-21T00:30:20;19.87;;;11.73;;
15096;SDS011;7649;52.084;7.478;2024-02-21T00:32:49;19.40;;;11.23;;
15096;SDS011;7649;52.084;7.478;2024-02-21T00:35:18;19.57;;;11.57;;
15096;SDS011;7649;52.084;7.478;2024-02-21T00:37:46;19.40;;;11.23;;
15096;SDS011;7649;52.084;7.478;2024-02-21T00:40:14;19.80;;;11.87;;
15096;SDS011;7649;52.084;7.478;2024-02-21T00:42:46;18.70;;;12.07;;
15096;SDS011;7649;52.084;7.478;2024-02-21T00:45:15;19.27;;;11.40;;
15096;SDS011;7649;52.084;7.478;2024-02-21T00:47:43;17.67;;;11.33;;
15096;SDS011;7649;52.084;7.478;2024-02-21T00:50:14;21.33;;;11.60;;
15096;SDS011;7649;52.084;7.478;2024-02-21T00:52:42;19.40;;;11.00;;
15096;SDS011;7649;52.084;7.478;2024-02-21T00:55:11;21.23;;;11.27;;
15096;SDS011;7649;52.084;7.478;2024-02-21T00:57:39;21.30;;;12.13;;
15096;SDS011;7649;52.084;7.478;2024-02-21T01:00:08;20.73;;;12.07;;
15096;SDS011;7649;52.084;7.478;2024-02-21T01:02:37;23.20;;;12.43;;
15096;SDS011;7649;52.084;7.478;2024-02-21T01:05:05;23.97;;;12.63;;
15096;SDS011;7649;52.084;7.478;2024-02-21T01:07:35;19.67;;;12.60;;
15096;SDS011;7649;52.084;7.478;2024-02-21T01:10:04;22.47;;;12.63;;
15096;SDS011;7649;52.084;7.478;2024-02-21T01:12:32;23.73;;;12.60;;
15096;SDS011;7649;52.084;7.478;2024-02-21T01:15:00;22.20;;;12.43;;
15096;SDS011;7649;52.084;7.478;2024-02-21T01:17:29;23.03;;;12.60;;
15096;SDS011;7649;52.084;7.478;2024-02-21T01:19:58;18.27;;;11.97;;
15096;SDS011;7649;52.084;7.478;2024-02-21T01:22:26;18.17;;;12.80;;
15096;SDS011;7649;52.084;7.478;2024-02-21T01:24:56;20.87;;;13.57;;
15096;SDS011;7649;52.084;7.478;2024-02-21T01:27:25;23.23;;;12.87;;
15096;SDS011;7649;52.084;7.478;2024-02-21T01:29:53;20.57;;;12.47;;
15096;SDS011;7649;52.084;7.478;2024-02-21T01:32:21;23.97;;;12.27;;
15096;SDS011;7649;52.084;7.478;2024-02-21T01:34:50;22.00;;;13.63;;
15096;SDS011;7649;52.084;7.478;2024-02-21T01:37:19;24.47;;;13.60;;
15096;SDS011;7649;52.084;7.478;2024-02-21T01:39:48;23.17;;;12.87;;
15096;SDS011;7649;52.084;7.478;2024-02-21T01:42:18;21.47;;;12.20;;
15096;SDS011;7649;52.084;7.478;2024-02-21T01:44:46;24.27;;;12.73;;
15096;SDS011;7649;52.084;7.478;2024-02-21T01:47:15;21.37;;;12.43;;
15096;SDS011;7649;52.084;7.478;2024-02-21T01:49:43;22.93;;;12.53;;
15096;SDS011;7649;52.084;7.478;2024-02-21T01:52:11;17.73;;;12.63;;
15096;SDS011;7649;52.084;7.478;2024-02-21T01:54:41;21.67;;;12.90;;
15096;SDS011;7649;52.084;7.478;2024-02-21T01:57:09;22.47;;;12.83;;
15096;SDS011;7649;52.084;7.478;2024-02-21T01:59:39;18.53;;;12.00;;
15096;SDS011;7649;52.084;7.478;2024-02-21T02:02:07;27.40;;;13.10;;
15096;SDS011;7649;52.084;7.478;2024-02-21T02:04:37;21.60;;;12.63;;
15096;SDS011;7649;52.084;7.478;2024-02-21T02:07:06;20.83;;;13.33;;
15096;SDS011;7649;52.084;7.478;2024-02-21T02:09:35;20.97;;;12.60;;
15096;SDS011;7649;52.084;7.478;2024-02-21T02:12:03;21.60;;;12.97;;
15096;SDS011;7649;52.084;7.478;2024-02-21T02:14:32;22.10;;;12.97;;
15096;SDS011;7649;52.084;7.478;2024-02-21T02:17:02;23.23;;;12.90;;
15096;SDS011;7649;52.084;7.478;2024-02-21T02:19:30;20.50;;;12.77;;
15096;SDS011;7649;52.084;7.478;2024-02-21T02:22:00;22.03;;;12.73;;
15096;SDS011;7649;52.084;7.478;2024-02-21T02:24:31;23.27;;;13.10;;
15096;SDS011;7649;52.084;7.478;2024-02-21T02:26:59;23.27;;;12.67;;
15096;SDS011;7649;52.084;7.478;2024-02-21T02:29:28;20.23;;;12.27;;
15096;SDS011;7649;52.084;7.478;2024-02-21T02:31:56;22.07;;;12.30;;
15096;SDS011;7649;52.084;7.478;2024-02-21T02:34:24;21.97;;;12.40;;
15096;SDS011;7649;52.084;7.478;2024-02-21T02:36:53;20.97;;;13.10;;
15096;SDS011;7649;52.084;7.478;2024-02-21T02:39:21;27.07;;;12.57;;
15096;SDS011;7649;52.084;7.478;2024-02-21T02:41:51;19.10;;;12.43;;
15096;SDS011;7649;52.084;7.478;2024-02-21T02:44:20;24.07;;;13.13;;
15096;SDS011;7649;52.084;7.478;2024-02-21T02:46:48;21.33;;;12.33;;
15096;SDS011;7649;52.084;7.478;2024-02-21T02:49:16;22.00;;;12.30;;
15096;SDS011;7649;52.084;7.478;2024-02-21T02:51:45;22.23;;;12.67;;
15096;SDS011;7649;52.084;7.478;2024-02-21T02:54:13;21.60;;;11.77;;
15096;SDS011;7649;52.084;7.478;2024-02-21T02:56:42;16.97;;;11.13;;
15096;SDS011;7649;52.084;7.478;2024-02-21T02:59:11;20.97;;;13.03;;
15096;SDS011;7649;52.084;7.478;2024-02-21T03:01:39;22.63;;;12.60;;
15096;SDS011;7649;52.084;7.478;2024-02-21T03:04:08;20.63;;;11.77;;
15096;SDS011;7649;52.084;7.478;2024-02-21T03:06:36;16.50;;;12.03;;
15096;SDS011;7649;52.084;7.478;2024-02-21T03:09:05;22.07;;;12.83;;
15096;SDS011;7649;52.084;7.478;2024-02-21T03:11:35;17.17;;;12.33;;
15096;SDS011;7649;52.084;7.478;2024-02-21T03:14:04;25.40;;;13.07;;
15096;SDS011;7649;52.084;7.478;2024-02-21T03:16:34;18.63;;;11.93;;
15096;SDS011;7649;52.084;7.478;2024-02-21T03:19:02;20.63;;;12.47;;
15096;SDS011;7649;52.084;7.478;2024-02-21T03:21:31;23.40;;;12.97;;
15096;SDS011;7649;52.084;7.478;2024-02-21T03:23:59;24.10;;;13.07;;
15096;SDS011;7649;52.084;7.478;2024-02-21T03:26:27;21.67;;;13.20;;
15096;SDS011;7649;52.084;7.478;2024-02-21T03:28:56;18.17;;;12.10;;
15096;SDS011;7649;52.084;7.478;2024-02-21T03:31:24;22.00;;;12.50;;
15096;SDS011;7649;52.084;7.478;2024-02-21T03:33:58;22.90;;;13.17;;
15096;SDS011;7649;52.084;7.478;2024-02-21T03:36:27;20.00;;;12.50;;
15096;SDS011;7649;52.084;7.478;2024-02-21T03:38:55;19.53;;;12.60;;
15096;SDS011;7649;52.084;7.478;2024-02-21T03:41:23;21.03;;;11.87;;
15096;SDS011;7649;52.084;7.478;2024-02-21T03:43:52;21.40;;;12.77;;
15096;SDS011;7649;52.084;7.478;2024-02-21T03:46:20;21.97;;;12.53;;
15096;SDS011;7649;52.084;7.478;2024-02-21T03:48:49;19.37;;;12.23;;
15096;SDS011;7649;52.084;7.478;2024-02-21T03:51:18;23.57;;;11.80;;
15096;SDS011;7649;52.084;7.478;2024-02-21T03:53:47;23.27;;;13.30;;
15096;SDS011;7649;52.084;7.478;2024-02-21T03:56:15;20.60;;;12.83;;
15096;SDS011;7649;52.084;7.478;2024-02-21T03:58:43;17.80;;;11.73;;
15096;SDS011;7649;52.084;7.478;2024-02-21T04:01:12;24.23;;;11.80;;
15096;SDS011;7649;52.084;7.478;2024-02-21T04:03:43;21.37;;;11.60;;
15096;SDS011;7649;52.084;7.478;2024-02-21T04:06:12;16.93;;;11.93;;
15096;SDS011;7649;52.084;7.478;2024-02-21T04:08:42;23.10;;;12.70;;
15096;SDS011;7649;52.084;7.478;2024-02-21T04:11:10;24.73;;;12.57;;
15096;SDS011;7649;52.084;7.478;2024-02-21T04:13:38;24.23;;;12.80;;
15096;SDS011;7649;52.084;7.478;2024-02-21T04:16:07;20.47;;;12.37;;
15096;SDS011;7649;52.084;7.478;2024-02-21T04:18:35;19.27;;;12.03;;
15096;SDS011;7649;52.084;7.478;2024-02-21T04:21:03;25.13;;;12.77;;
15096;SDS011;7649;52.084;7.478;2024-02-21T04:23:32;22.73;;;12.63;;
15096;SDS011;7649;52.084;7.478;2024-02-21T04:26:01;21.03;;;12.43;;
15096;SDS011;7649;52.084;7.478;2024-02-21T04:28:30;20.97;;;12.93;;
15096;SDS011;7649;52.084;7.478;2024-02-21T04:30:58;26.60;;;12.60;;
15096;SDS011;7649;52.084;7.478;2024-02-21T04:33:27;23.40;;;12.07;;
15096;SDS011;7649;52.084;7.478;2024-02-21T04:35:55;22.27;;;12.07;;
15096;SDS011;7649;52.084;7.478;2024-02-21T04:38:25;17.53;;;11.70;;
15096;SDS011;7649;52.084;7.478;2024-02-21T04:40:53;18.57;;;11.27;;
15096;SDS011;7649;52.084;7.478;2024-02-21T04:43:23;18.80;;;11.23;;
15096;SDS011;7649;52.084;7.478;2024-02-21T04:45:51;18.33;;;10.77;;
15096;SDS011;7649;52.084;7.478;2024-02-21T04:48:20;24.90;;;11.97;;
15096;SDS011;7649;52.084;7.478;2024-02-21T04:50:48;21.37;;;11.83;;
15096;SDS011;7649;52.084;7.478;2024-02-21T04:53:17;18.60;;;11.17;;
15096;SDS011;7649;52.084;7.478;2024-02-21T04:55:45;23.80;;;11.73;;
15096;SDS011;7649;52.084;7.478;2024-02-21T04:58:14;18.27;;;10.63;;
15096;SDS011;7649;52.084;7.478;2024-02-21T05:00:43;23.57;;;11.83;;
15096;SDS011;7649;52.084;7.478;2024-02-21T05:03:12;16.40;;;10.37;;
15096;SDS011;7649;52.084;7.478;2024-02-21T05:05:40;17.93;;;11.70;;
15096;SDS011;7649;52.084;7.478;2024-02-21T05:08:09;18.10;;;10.17;;
15096;SDS011;7649;52.084;7.478;2024-02-21T05:10:37;20.17;;;11.43;;
15096;SDS011;7649;52.084;7.478;2024-02-21T05:13:06;17.97;;;10.77;;
15096;SDS011;7649;52.084;7.478;2024-02-21T05:15:35;18.13;;;10.70;;
15096;SDS011;7649;52.084;7.478;2024-02-21T05:18:05;17.90;;;10.70;;
15096;SDS011;7649;52.084;7.478;2024-02-21T05:20:33;16.70;;;10.37;;
15096;SDS011;7649;52.084;7.478;2024-02-21T05:23:02;18.30;;;10.57;;
15096;SDS011;7649;52.084;7.478;2024-02-21T05:25:30;20.63;;;9.67;;
15096;SDS011;7649;52.084;7.478;2024-02-21T05:27:59;16.50;;;9.83;;
15096;SDS011;7649;52.084;7.478;2024-02-21T05:30:28;16.80;;;10.13;;
15096;SDS011;7649;52.084;7.478;2024-02-21T05:32:57;16.43;;;9.93;;
15096;SDS011;7649;52.084;7.478;2024-02-21T05:35:27;17.93;;;9.77;;
15096;SDS011;7649;52.084;7.478;2024-02-21T05:37:56;17.10;;;9.63;;
15096;SDS011;7649;52.084;7.478;2024-02-21T05:40:25;16.93;;;9.90;;
15096;SDS011;7649;52.084;7.478;2024-02-21T05:42:54;15.47;;;8.67;;
15096;SDS011;7649;52.084;7.478;2024-02-21T05:45:23;16.37;;;9.30;;
15096;SDS011;7649;52.084;7.478;2024-02-21T05:47:52;14.23;;;9.10;;
15096;SDS011;7649;52.084;7.478;2024-02-21T05:50:20;18.87;;;9.60;;
15096;SDS011;7649;52.084;7.478;2024-02-21T05:52:52;18.03;;;10.57;;
15096;SDS011;7649;52.084;7.478;2024-02-21T05:55:21;17.27;;;9.70;;
15096;SDS011;7649;52.084;7.478;2024-02-21T05:57:49;15.00;;;9.53;;
15096;SDS011;7649;52.084;7.478;2024-02-21T06:00:17;20.97;;;9.93;;
15096;SDS011;7649;52.084;7.478;2024-02-21T06:02:46;15.30;;;9.00;;
15096;SDS011;7649;52.084;7.478;2024-02-21T06:05:14;20.73;;;9.57;;
15096;SDS011;7649;52.084;7.478;2024-02-21T06:07:42;20.53;;;9.97;;
15096;SDS011;7649;52.084;7.478;2024-02-21T06:10:13;14.13;;;8.83;;
15096;SDS011;7649;52.084;7.478;2024-02-21T06:12:41;14.80;;;9.33;;
15096;SDS011;7649;52.084;7.478;2024-02-21T06:15:10;19.23;;;10.63;;
15096;SDS011;7649;52.084;7.478;2024-02-21T06:17:38;16.53;;;9.53;;
15096;SDS011;7649;52.084;7.478;2024-02-21T06:20:07;12.50;;;8.67;;
15096;SDS011;7649;52.084;7.478;2024-02-21T06:22:35;17.30;;;9.40;;
15096;SDS011;7649;52.084;7.478;2024-02-21T06:25:04;21.23;;;9.77;;
15096;SDS011;7649;52.084;7.478;2024-02-21T06:27:34;16.47;;;9.87;;
15096;SDS011;7649;52.084;7.478;2024-02-21T06:30:02;16.30;;;9.83;;
15096;SDS011;7649;52.084;7.478;2024-02-21T06:32:30;16.63;;;9.67;;
15096;SDS011;7649;52.084;7.478;2024-02-21T06:34:59;16.03;;;10.07;;
15096;SDS011;7649;52.084;7.478;2024-02-21T06:37:28;22.10;;;10.37;;
15096;SDS011;7649;52.084;7.478;2024-02-21T06:39:58;15.37;;;9.50;;
15096;SDS011;7649;52.084;7.478;2024-02-21T06:42:27;15.27;;;9.40;;
15096;SDS011;7649;52.084;7.478;2024-02-21T06:44:57;18.97;;;10.03;;
15096;SDS011;7649;52.084;7.478;2024-02-21T06:47:25;17.73;;;9.57;;
15096;SDS011;7649;52.084;7.478;2024-02-21T06:49:53;17.53;;;8.27;;
15096;SDS011;7649;52.084;7.478;2024-02-21T06:52:22;15.03;;;8.77;;
15096;SDS011;7649;52.084;7.478;2024-02-21T06:54:51;15.20;;;8.90;;
15096;SDS011;7649;52.084;7.478;2024-02-21T06:57:19;16.17;;;8.30;;
15096;SDS011;7649;52.084;7.478;2024-02-21T06:59:48;16.63;;;8.70;;
15096;SDS011;7649;52.084;7.478;2024-02-21T07:02:17;15.57;;;9.43;;
15096;SDS011;7649;52.084;7.478;2024-02-21T07:04:46;14.63;;;8.80;;
15096;SDS011;7649;52.084;7.478;2024-02-21T07:07:15;16.30;;;9.00;;
15096;SDS011;7649;52.084;7.478;2024-02-21T07:09:43;13.37;;;8.23;;
15096;SDS011;7649;52.084;7.478;2024-02-21T07:12:14;16.13;;;8.70;;
15096;SDS011;7649;52.084;7.478;2024-02-21T07:14:44;14.43;;;8.10;;
15096;SDS011;7649;52.084;7.478;2024-02-21T07:17:12;13.80;;;7.23;;
15096;SDS011;7649;52.084;7.478;2024-02-21T07:19:42;13.90;;;7.90;;
15096;SDS011;7649;52.084;7.478;2024-02-21T07:22:10;14.17;;;7.70;;
15096;SDS011;7649;52.084;7.478;2024-02-21T07:24:39;14.30;;;8.30;;
15096;SDS011;7649;52.084;7.478;2024-02-21T07:27:07;13.13;;;7.87;;
15096;SDS011;7649;52.084;7.478;2024-02-21T07:29:35;13.73;;;7.10;;
15096;SDS011;7649;52.084;7.478;2024-02-21T07:32:04;16.07;;;7.87;;
15096;SDS011;7649;52.084;7.478;2024-02-21T07:34:32;17.03;;;7.90;;
15096;SDS011;7649;52.084;7.478;2024-02-21T07:37:02;15.13;;;7.63;;
15096;SDS011;7649;52.084;7.478;2024-02-21T07:39:31;13.57;;;7.70;;
15096;SDS011;7649;52.084;7.478;2024-02-21T07:41:59;15.33;;;7.73;;
15096;SDS011;7649;52.084;7.478;2024-02-21T07:44:27;12.97;;;7.50;;
15096;SDS011;7649;52.084;7.478;2024-02-21T07:46:58;13.07;;;7.33;;
15096;SDS011;7649;52.084;7.478;2024-02-21T07:49:26;12.53;;;6.77;;
15096;SDS011;7649;52.084;7.478;2024-02-21T07:51:54;15.30;;;7.80;;
15096;SDS011;7649;52.084;7.478;2024-02-21T07:54:25;15.53;;;7.13;;
15096;SDS011;7649;52.084;7.478;2024-02-21T07:56:56;12.17;;;6.67;;
15096;SDS011;7649;52.084;7.478;2024-02-21T07:59:24;10.33;;;6.80;;
15096;SDS011;7649;52.084;7.478;2024-02-21T08:01:55;12.20;;;7.63;;
15096;SDS011;7649;52.084;7.478;2024-02-21T08:04:24;14.07;;;6.47;;
15096;SDS011;7649;52.084;7.478;2024-02-21T08:06:52;10.40;;;6.60;;
15096;SDS011;7649;52.084;7.478;2024-02-21T08:09:22;12.93;;;6.90;;
15096;SDS011;7649;52.084;7.478;2024-02-21T08:11:51;12.57;;;6.33;;
15096;SDS011;7649;52.084;7.478;2024-02-21T08:14:20;12.77;;;6.60;;
15096;SDS011;7649;52.084;7.478;2024-02-21T08:16:48;12.17;;;6.40;;
15096;SDS011;7649;52.084;7.478;2024-02-21T08:19:17;11.63;;;6.47;;
15096;SDS011;7649;52.084;7.478;2024-02-21T08:21:45;12.80;;;7.27;;
15096;SDS011;7649;52.084;7.478;2024-02-21T08:24:14;14.77;;;7.37;;
15096;SDS011;7649;52.084;7.478;2024-02-21T08:26:42;12.07;;;7.83;;
15096;SDS011;7649;52.084;7.478;2024-02-21T08:29:12;12.37;;;7.37;;
15096;SDS011;7649;52.084;7.478;2024-02-21T08:31:41;14.67;;;7.70;;
15096;SDS011;7649;52.084;7.478;2024-02-21T08:34:09;17.47;;;8.67;;
15096;SDS011;7649;52.084;7.478;2024-02-21T08:36:40;16.20;;;8.53;;
15096;SDS011;7649;52.084;7.478;2024-02-21T08:39:08;16.40;;;8.30;;
15096;SDS011;7649;52.084;7.478;2024-02-21T08:41:37;16.17;;;8.43;;
15096;SDS011;7649;52.084;7.478;2024-02-21T08:44:23;17.17;;;8.53;;
15096;SDS011;7649;52.084;7.478;2024-02-21T08:46:53;15.00;;;7.93;;
15096;SDS011;7649;52.084;7.478;2024-02-21T08:49:23;27.03;;;9.27;;
15096;SDS011;7649;52.084;7.478;2024-02-21T08:51:59;11.43;;;7.17;;
15096;SDS011;7649;52.084;7.478;2024-02-21T08:54:28;15.23;;;7.57;;
15096;SDS011;7649;52.084;7.478;2024-02-21T08:56:57;14.80;;;8.03;;
15096;SDS011;7649;52.084;7.478;2024-02-21T08:59:27;14.13;;;7.27;;
15096;SDS011;7649;52.084;7.478;2024-02-21T09:01:55;15.17;;;7.87;;
15096;SDS011;7649;52.084;7.478;2024-02-21T09:04:24;13.70;;;6.60;;
15096;SDS011;7649;52.084;7.478;2024-02-21T09:06:52;10.40;;;6.80;;
15096;SDS011;7649;52.084;7.478;2024-02-21T09:09:21;12.73;;;7.27;;
15096;SDS011;7649;52.084;7.478;2024-02-21T09:11:52;17.60;;;7.40;;
15096;SDS011;7649;52.084;7.478;2024-02-21T09:14:21;13.27;;;7.30;;
15096;SDS011;7649;52.084;7.478;2024-02-21T09:16:50;28.23;;;8.93;;
15096;SDS011;7649;52.084;7.478;2024-02-21T09:19:19;16.57;;;6.60;;
15096;SDS011;7649;52.084;7.478;2024-02-21T09:21:47;14.43;;;6.80;;
15096;SDS011;7649;52.084;7.478;2024-02-21T09:24:17;14.07;;;7.90;;
15096;SDS011;7649;52.084;7.478;2024-02-21T09:26:45;11.53;;;6.33;;
15096;SDS011;7649;52.084;7.478;2024-02-21T09:29:13;13.43;;;7.40;;
15096;SDS011;7649;52.084;7.478;2024-02-21T09:31:46;15.07;;;7.43;;
15096;SDS011;7649;52.084;7.478;2024-02-21T09:34:17;13.07;;;7.13;;
15096;SDS011;7649;52.084;7.478;2024-02-21T09:36:46;20.13;;;8.33;;
15096;SDS011;7649;52.084;7.478;2024-02-21T09:39:14;17.43;;;8.23;;
15096;SDS011;7649;52.084;7.478;2024-02-21T09:41:45;8.40;;;7.10;;
15096;SDS011;7649;52.084;7.478;2024-02-21T09:44:13;14.30;;;7.47;;
15096;SDS011;7649;52.084;7.478;2024-02-21T09:46:42;14.73;;;7.40;;
15096;SDS011;7649;52.084;7.478;2024-02-21T09:49:14;16.30;;;7.83;;
15096;SDS011;7649;52.084;7.478;2024-02-21T09:51:46;13.07;;;7.33;;
15096;SDS011;7649;52.084;7.478;2024-02-21T09:54:15;11.77;;;7.03;;
15096;SDS011;7649;52.084;7.478;2024-02-21T09:56:45;11.47;;;7.73;;
15096;SDS011;7649;52.084;7.478;2024-02-21T09:59:14;15.93;;;7.37;;
15096;SDS011;7649;52.084;7.478;2024-02-21T10:01:43;14.93;;;7.13;;
15096;SDS011;7649;52.084;7.478;2024-02-21T10:04:13;12.60;;;6.93;;
15096;SDS011;7649;52.084;7.478;2024-02-21T10:06:42;13.90;;;6.70;;
15096;SDS011;7649;52.084;7.478;2024-02-21T10:09:20;12.87;;;6.70;;
15096;SDS011;7649;52.084;7.478;2024-02-21T10:11:50;9.67;;;6.77;;
15096;SDS011;7649;52.084;7.478;2024-02-21T10:14:18;17.90;;;7.60;;
15096;SDS011;7649;52.084;7.478;2024-02-21T10:16:47;9.70;;;6.60;;
15096;SDS011;7649;52.084;7.478;2024-02-21T10:19:17;13.40;;;7.27;;
15096;SDS011;7649;52.084;7.478;2024-02-21T10:24:32;11.47;;;7.20;;
15096;SDS011;7649;52.084;7.478;2024-02-21T10:27:03;8.43;;;6.53;;
15096;SDS011;7649;52.084;7.478;2024-02-21T10:29:34;12.37;;;6.30;;
15096;SDS011;7649;52.084;7.478;2024-02-21T10:32:03;9.63;;;6.10;;
15096;SDS011;7649;52.084;7.478;2024-02-21T10:34:32;13.23;;;6.87;;
15096;SDS011;7649;52.084;7.478;2024-02-21T10:37:01;12.97;;;7.40;;
15096;SDS011;7649;52.084;7.478;2024-02-21T10:39:32;14.60;;;7.67;;
15096;SDS011;7649;52.084;7.478;2024-02-21T10:42:01;10.20;;;7.77;;
15096;SDS011;7649;52.084;7.478;2024-02-21T10:44:30;10.33;;;9.03;;
15096;SDS011;7649;52.084;7.478;2024-02-21T10:46:59;12.80;;;9.63;;
15096;SDS011;7649;52.084;7.478;2024-02-21T10:49:27;11.70;;;9.03;;
15096;SDS011;7649;52.084;7.478;2024-02-21T10:51:59;14.60;;;9.73;;
15096;SDS011;7649;52.084;7.478;2024-02-21T10:54:38;12.50;;;9.47;;
15096;SDS011;7649;52.084;7.478;2024-02-21T10:57:07;12.47;;;9.47;;
15096;SDS011;7649;52.084;7.478;2024-02-21T10:59:37;15.17;;;9.47;;
15096;SDS011;7649;52.084;7.478;2024-02-21T11:02:05;15.63;;;10.40;;
15096;SDS011;7649;52.084;7.478;2024-02-21T11:04:34;16.03;;;10.27;;
15096;SDS011;7649;52.084;7.478;2024-02-21T11:07:03;15.50;;;10.40;;
15096;SDS011;7649;52.084;7.478;2024-02-21T11:09:38;12.90;;;9.77;;
15096;SDS011;7649;52.084;7.478;2024-02-21T11:12:06;14.63;;;10.43;;
15096;SDS011;7649;52.084;7.478;2024-02-21T11:14:37;13.33;;;9.67;;
15096;SDS011;7649;52.084;7.478;2024-02-21T11:17:14;11.17;;;9.17;;
15096;SDS011;7649;52.084;7.478;2024-02-21T11:19:43;11.60;;;8.27;;
15096;SDS011;7649;52.084;7.478;2024-02-21T11:22:15;10.70;;;7.40;;
15096;SDS011;7649;52.084;7.478;2024-02-21T11:24:45;9.80;;;7.87;;
15096;SDS011;7649;52.084;7.478;2024-02-21T11:27:14;9.57;;;7.10;;
15096;SDS011;7649;52.084;7.478;2024-02-21T11:29:43;9.00;;;7.30;;
15096;SDS011;7649;52.084;7.478;2024-02-21T11:32:14;10.80;;;8.00;;
15096;SDS011;7649;52.084;7.478;2024-02-21T11:34:52;9.00;;;7.57;;
15096;SDS011;7649;52.084;7.478;2024-02-21T11:37:21;12.07;;;7.40;;
15096;SDS011;7649;52.084;7.478;2024-02-21T11:39:54;12.50;;;7.33;;
15096;SDS011;7649;52.084;7.478;2024-02-21T11:42:24;9.40;;;7.10;;
15096;SDS011;7649;52.084;7.478;2024-02-21T11:44:53;8.30;;;7.40;;
15096;SDS011;7649;52.084;7.478;2024-02-21T11:47:23;12.57;;;7.90;;
15096;SDS011;7649;52.084;7.478;2024-02-21T11:49:52;8.07;;;7.13;;
15096;SDS011;7649;52.084;7.478;2024-02-21T11:52:21;11.53;;;6.77;;
15096;SDS011;7649;52.084;7.478;2024-02-21T11:54:51;8.17;;;7.13;;
15096;SDS011;7649;52.084;7.478;2024-02-21T11:57:22;12.13;;;7.57;;
15096;SDS011;7649;52.084;7.478;2024-02-21T11:59:51;10.70;;;6.83;;
15096;SDS011;7649;52.084;7.478;2024-02-21T12:02:25;9.17;;;7.00;;
15096;SDS011;7649;52.084;7.478;2024-02-21T12:04:55;9.43;;;6.17;;
15096;SDS011;7649;52.084;7.478;2024-02-21T12:07:24;7.90;;;6.13;;
15096;SDS011;7649;52.084;7.478;2024-02-21T12:09:58;9.40;;;6.30;;
15096;SDS011;7649;52.084;7.478;2024-02-21T12:12:28;8.70;;;6.10;;
15096;SDS011;7649;52.084;7.478;2024-02-21T12:14:56;7.47;;;5.77;;
15096;SDS011;7649;52.084;7.478;2024-02-21T12:17:25;7.77;;;5.73;;
15096;SDS011;7649;52.084;7.478;2024-02-21T12:19:54;8.43;;;5.47;;
15096;SDS011;7649;52.084;7.478;2024-02-21T12:22:22;9.40;;;5.40;;
15096;SDS011;7649;52.084;7.478;2024-02-21T12:24:51;8.70;;;5.50;;
15096;SDS011;7649;52.084;7.478;2024-02-21T12:27:19;10.00;;;6.40;;
15096;SDS011;7649;52.084;7.478;2024-02-21T12:29:49;11.00;;;5.40;;
15096;SDS011;7649;52.084;7.478;2024-02-21T12:32:17;9.90;;;5.93;;
15096;SDS011;7649;52.084;7.478;2024-02-21T12:34:46;9.63;;;6.87;;
15096;SDS011;7649;52.084;7.478;2024-02-21T12:37:21;10.83;;;5.80;;
15096;SDS011;7649;52.084;7.478;2024-02-21T12:39:50;7.87;;;5.07;;
15096;SDS011;7649;52.084;7.478;2024-02-21T12:42:18;11.53;;;6.40;;
15096;SDS011;7649;52.084;7.478;2024-02-21T12:44:47;8.87;;;5.90;;
15096;SDS011;7649;52.084;7.478;2024-02-21T12:47:16;9.80;;;5.20;;
15096;SDS011;7649;52.084;7.478;2024-02-21T12:49:46;6.13;;;4.40;;
15096;SDS011;7649;52.084;7.478;2024-02-21T12:52:14;8.70;;;4.70;;
15096;SDS011;7649;52.084;7.478;2024-02-21T12:54:43;10.77;;;6.20;;
15096;SDS011;7649;52.084;7.478;2024-02-21T12:57:11;5.43;;;4.60;;
15096;SDS011;7649;52.084;7.478;2024-02-21T12:59:39;7.60;;;4.33;;
15096;SDS011;7649;52.084;7.478;2024-02-21T13:02:08;7.13;;;4.53;;
15096;SDS011;7649;52.084;7.478;2024-02-21T13:04:38;16.53;;;6.97;;
15096;SDS011;7649;52.084;7.478;2024-02-21T13:07:07;8.23;;;5.03;;
15096;SDS011;7649;52.084;7.478;2024-02-21T13:09:36;8.43;;;5.20;;
15096;SDS011;7649;52.084;7.478;2024-02-21T13:12:05;11.63;;;4.47;;
15096;SDS011;7649;52.084;7.478;2024-02-21T13:14:33;5.57;;;4.10;;
15096;SDS011;7649;52.084;7.478;2024-02-21T13:17:05;6.20;;;3.97;;
15096;SDS011;7649;52.084;7.478;2024-02-21T13:19:33;10.93;;;5.10;;
15096;SDS011;7649;52.084;7.478;2024-02-21T13:22:04;7.80;;;4.03;;
15096;SDS011;7649;52.084;7.478;2024-02-21T13:24:32;9.33;;;5.17;;
15096;SDS011;7649;52.084;7.478;2024-02-21T13:27:01;10.63;;;5.17;;
15096;SDS011;7649;52.084;7.478;2024-02-21T13:29:30;6.70;;;4.47;;
15096;SDS011;7649;52.084;7.478;2024-02-21T13:31:58;9.97;;;5.60;;
15096;SDS011;7649;52.084;7.478;2024-02-21T13:34:27;8.27;;;4.33;;
15096;SDS011;7649;52.084;7.478;2024-02-21T13:36:55;6.63;;;3.97;;
15096;SDS011;7649;52.084;7.478;2024-02-21T13:39:26;8.10;;;4.77;;
15096;SDS011;7649;52.084;7.478;2024-02-21T13:41:55;7.00;;;4.17;;
15096;SDS011;7649;52.084;7.478;2024-02-21T13:44:25;8.07;;;4.27;;
15096;SDS011;7649;52.084;7.478;2024-02-21T13:46:53;8.00;;;4.00;;
15096;SDS011;7649;52.084;7.478;2024-02-21T13:49:22;8.73;;;4.80;;
15096;SDS011;7649;52.084;7.478;2024-02-21T13:51:50;8.23;;;4.33;;
15096;SDS011;7649;52.084;7.478;2024-02-21T13:54:19;9.93;;;5.00;;
15096;SDS011;7649;52.084;7.478;2024-02-21T13:56:49;8.17;;;4.77;;
15096;SDS011;7649;52.084;7.478;2024-02-21T13:59:18;8.97;;;4.17;;
15096;SDS011;7649;52.084;7.478;2024-02-21T14:01:46;9.37;;;4.60;;
15096;SDS011;7649;52.084;7.478;2024-02-21T14:04:14;11.33;;;4.73;;
15096;SDS011;7649;52.084;7.478;2024-02-21T14:06:43;7.87;;;4.50;;
15096;SDS011;7649;52.084;7.478;2024-02-21T14:09:11;7.50;;;4.80;;
15096;SDS011;7649;52.084;7.478;2024-02-21T14:11:39;43.23;;;7.30;;
15096;SDS011;7649;52.084;7.478;2024-02-21T14:14:10;9.33;;;4.53;;
15096;SDS011;7649;52.084;7.478;2024-02-21T14:16:38;134.87;;;14.23;;
15096;SDS011;7649;52.084;7.478;2024-02-21T14:19:07;34.60;;;7.67;;
15096;SDS011;7649;52.084;7.478;2024-02-21T14:21:36;193.20;;;15.67;;
15096;SDS011;7649;52.084;7.478;2024-02-21T14:24:05;9.43;;;4.93;;
15096;SDS011;7649;52.084;7.478;2024-02-21T14:26:33;19.80;;;5.83;;
15096;SDS011;7649;52.084;7.478;2024-02-21T14:29:03;11.60;;;4.87;;
15096;SDS011;7649;52.084;7.478;2024-02-21T14:31:33;8.97;;;5.40;;
15096;SDS011;7649;52.084;7.478;2024-02-21T14:34:02;10.97;;;4.80;;
15096;SDS011;7649;52.084;7.478;2024-02-21T14:36:31;15.27;;;5.30;;
15096;SDS011;7649;52.084;7.478;2024-02-21T14:38:59;28.93;;;6.27;;
15096;SDS011;7649;52.084;7.478;2024-02-21T14:41:31;17.53;;;6.70;;
15096;SDS011;7649;52.084;7.478;2024-02-21T14:44:01;7.93;;;4.87;;
15096;SDS011;7649;52.084;7.478;2024-02-21T14:46:30;13.07;;;5.27;;
15096;SDS011;7649;52.084;7.478;2024-02-21T14:49:01;9.00;;;4.60;;
15096;SDS011;7649;52.084;7.478;2024-02-21T14:51:30;11.20;;;4.67;;
15096;SDS011;7649;52.084;7.478;2024-02-21T14:53:59;13.90;;;4.80;;
15096;SDS011;7649;52.084;7.478;2024-02-21T14:56:28;11.80;;;4.37;;
15096;SDS011;7649;52.084;7.478;2024-02-21T14:58:58;7.80;;;4.13;;